KSBM

Sheboygan County Memorial Airport

Sheboygan, Wisconsin, USA
METAR KSBM 181453Z AUTO 24009KT 10SM CLR M06/M09 A2994 RMK AO2 SLP151 T10561094 55011 TSNO
Observed Flight Rules
Jan-18 @ 14:53 UTC (38 minutes ago) Visual Flight Rules
Wind Visibility Clouds
240° at 9 knots 10 miles
  • Clear skies
Temperatures Readings
Current -6°C / 21°F
Dewpoint -9°C / 16°F
Humidity 80%
Altimeter 29.94" Hg
Pressure 1015.1 hPa
Elevation 232
METAR KSBM 181453Z AUTO 24009KT 10SM CLR M06/M09 A2994 RMK AO2 SLP151 T10561094 55011 TSNO
Observed Flight Rules
Jan-18 @ 14:53 UTC
(38 minutes ago)
VFR
Wind Visibility
240° at 9 knots 10 miles
Clouds
  • Clear skies
Temperature Dewpoint
-6°C / 21°F -9°C / 16°F
Humidity Altimeter Pressure
80% 29.94" Hg 1015.1 hPa